Flight Track Log - Related Links

Times and Time Zones

All times are in EDT time to prevent confusion due to time zone crossing. See the SWA279 flight status page for this flight to view local times or setup timezone preferences in your user account.

Time Position Orientation Groundspeed Altitude Reporting Facility
EDT Latitude Longitude Course Direction KTS MPH feet Rate Location/Type
Wed 09:35:20 PM 39.5333 -119.7667 346° North 161 185 5,900  Level Northern Cal TRACON
Wed 09:36:20 PM 39.5833 -119.7833 346° North 231 266 8,200 2,693 Climbing Northern Cal TRACON
Wed 09:37:27 PM 39.6581 -119.8231 338° Northwest 260 299 11,600 3,234 Climbing Oakland Center
Wed 09:38:28 PM 39.7522 -119.8589 344° North 323 372 15,100 3,541 Climbing Oakland Center
Wed 09:39:29 PM 39.8461 -119.9039 340° North 358 412 18,800 3,492 Climbing Oakland Center
Wed 09:40:30 PM 39.9411 -119.9636 334° Northwest 373 429 22,200 3,122 Climbing Oakland Center
Wed 09:41:32 PM 40.0386 -120.0256 334° Northwest 387 445 25,200 2,780 Climbing Oakland Center
Wed 09:42:33 PM 40.1408 -120.0894 334° Northwest 401 461 27,900 2,508 Climbing Oakland Center
Wed 09:43:34 PM 40.2444 -120.1528 335° Northwest 409 471 30,300 2,508 Climbing Oakland Center
Wed 09:44:35 PM 40.3492 -120.2186 334° Northwest 416 479 33,000 2,164 Climbing Oakland Center
Wed 09:45:36 PM 40.4519 -120.2831 334° Northwest 410 472 34,700 1,770 Climbing Oakland Center
Wed 09:46:37 PM 40.5719 -120.3553 335° Northwest 425 489 36,600 1,659 Climbing Oakland Center
Wed 09:47:39 PM 40.6789 -120.4211 335° Northwest 424 488 38,100 732 Climbing Oakland Center
Wed 09:48:40 PM 40.7819 -120.4872 334° Northwest 414 476 38,100  Level Oakland Center
Wed 09:49:41 PM 40.8847 -120.5531 334° Northwest 410 472 38,100  Level Oakland Center
Wed 09:50:02 PM 40.9261 -120.5797 334° Northwest 411 473 38,100  Level Seattle Center
Wed 09:51:03 PM 41.0294 -120.6456 334° Northwest 412 474 38,100  Level Seattle Center
Wed 09:52:04 PM 41.1314 -120.7119 334° Northwest 409 471 38,100  Level Seattle Center
Wed 09:53:04 PM 41.2339 -120.7764 335° Northwest 407 468 38,100  Level Seattle Center
Wed 09:54:05 PM 41.3361 -120.8428 334° Northwest 407 468 38,100  Level Seattle Center
Wed 09:55:06 PM 41.4344 -120.9083 333° Northwest 400 460 38,100  Level Seattle Center
Wed 09:56:07 PM 41.5342 -120.9739 334° Northwest 399 459 38,100  Level Seattle Center
Wed 09:57:07 PM 41.6344 -121.0389 334° Northwest 401 461 38,100  Level Seattle Center
Wed 09:58:08 PM 41.7339 -121.1033 334° Northwest 398 458 38,100  Level Seattle Center
Wed 09:59:09 PM 41.8339 -121.1694 334° Northwest 401 461 38,100  Level Seattle Center
Wed 10:00:10 PM 41.9342 -121.2353 334° Northwest 403 464 38,100  Level Seattle Center
Wed 10:01:11 PM 42.0358 -121.3014 334° Northwest 406 467 38,100  Level Seattle Center
Wed 10:02:12 PM 42.1603 -121.3833 334° Northwest 422 486 38,100  Level Seattle Center
Wed 10:03:12 PM 42.2647 -121.4539 333° Northwest 425 489 38,100  Level Seattle Center
Wed 10:04:13 PM 42.3669 -121.5225 334° Northwest 416 479 38,100  Level Seattle Center
Wed 10:05:14 PM 42.4706 -121.5906 334° Northwest 416 479 38,100  Level Seattle Center
Wed 10:06:15 PM 42.5731 -121.6594 334° Northwest 413 475 38,100  Level Seattle Center
Wed 10:07:16 PM 42.6733 -121.7281 333° Northwest 406 467 38,100  Level Seattle Center
Wed 10:08:16 PM 42.7722 -121.7956 333° Northwest 401 461 38,100  Level Seattle Center
Wed 10:09:17 PM 42.8719 -121.8619 334° Northwest 401 461 38,100  Level Seattle Center
Wed 10:10:18 PM 42.9711 -121.9294 334° Northwest 400 460 38,100  Level Seattle Center
Wed 10:11:19 PM 43.0694 -121.9967 333° Northwest 397 457 38,100  Level Seattle Center
Wed 10:12:20 PM 43.1694 -122.0664 333° Northwest 402 463 38,100  Level Seattle Center
Wed 10:13:21 PM 43.2806 -122.1414 334° Northwest 405 466 38,100  Level Seattle Center
Wed 10:14:21 PM 43.3831 -122.2097 334° Northwest 408 470 38,100  Level Seattle Center
Wed 10:15:22 PM 43.4836 -122.2817 333° Northwest 407 468 38,100  Level Seattle Center
Wed 10:16:23 PM 43.5842 -122.3531 333° Northwest 407 468 38,100  Level Seattle Center
Wed 10:17:24 PM 43.6847 -122.4231 333° Northwest 405 466 38,100  Level Seattle Center
Wed 10:18:25 PM 43.7858 -122.4942 333° Northwest 408 470 38,100  Level Seattle Center
Wed 10:19:25 PM 43.8908 -122.5436 341° North 402 463 38,100 -992 Level Seattle Center
Wed 10:20:26 PM 44.0253 -122.5606 355° North 404 465 36,100 -2,607 Descending Seattle Center
Wed 10:21:27 PM 44.1367 -122.5733 355° North 403 464 32,800 -3,148 Descending Seattle Center
Wed 10:22:28 PM 44.2478 -122.5861 355° North 403 464 29,700 -2,803 Descending Seattle Center
Wed 10:23:29 PM 44.3550 -122.5981 355° North 392 451 27,100 -2,508 Descending Seattle Center
Wed 10:24:30 PM 44.4575 -122.6097 355° North 375 432 24,600 -2,410 Descending Seattle Center
Wed 10:25:31 PM 44.5569 -122.6217 355° North 362 417 22,200 -2,500 Descending Seattle Center
Wed 10:26:18 PM 44.6417 -122.6347 354° North 355 409 20,100 -2,494 Descending Seattle Center
Wed 10:27:00 PM 44.7100 -122.6408 356° North 353 406 18,500 -2,108 Descending Seattle Center
Wed 10:27:32 PM 44.7528 -122.6464 355° North 354 407 17,500 -2,509 Descending Seattle Center
Wed 10:27:55 PM 44.7967 -122.6517 355° North 346 398 16,200 -2,459 Descending Seattle Center
Wed 10:28:33 PM 44.8478 -122.6581 355° North 348 400 15,000 -2,361 Descending Seattle Center
Wed 10:28:56 PM 44.8925 -122.6647 354° North 340 391 13,800 -2,656 Descending Seattle Center
Wed 10:29:34 PM 44.9464 -122.6700 356° North 340 391 12,300 -2,300 Descending Seattle Center
Wed 10:29:56 PM 44.9847 -122.6703 360° North 330 380 11,500 -1,770 Descending Seattle Center
Wed 10:30:35 PM 45.0361 -122.6667 North 328 377 10,500 -1,279 Descending Seattle Center
Wed 10:30:57 PM 45.0719 -122.6625 North 305 351 10,200 -1,180 Descending Seattle Center
Wed 10:31:36 PM 45.1175 -122.6569 North 304 350 9,300 -1,574 Descending Seattle Center
Wed 10:31:58 PM 45.1567 -122.6528 North 284 327 8,600 -1,574 Descending Seattle Center
Wed 10:32:37 PM 45.1956 -122.6481 North 287 330 7,700 -1,701 Descending Seattle Center
Wed 10:33:05 PM 45.2419 -122.6458 North 281 323 6,700 -1,600 Descending Seattle Center
Wed 10:33:37 PM 45.2725 -122.6411 North 281 323 6,100 -1,433 Descending Seattle Center
Wed 10:34:12 PM 45.3286 -122.6353 North 276 318 5,100 -1,082 Descending Seattle Center
Wed 10:34:38 PM 45.3486 -122.6336 North 277 319 5,000 -98 Descending Seattle Center
Wed 10:35:13 PM 45.4028 -122.6267 North 265 305 5,000  Level Seattle Center
Wed 10:35:39 PM 45.4217 -122.6244 North 269 310 5,000 -200 Level Seattle Center
Wed 10:36:13 PM 45.4361 -122.5669 70° East 230 265 4,800 -492 Descending Seattle Center
Wed 10:36:40 PM 45.4317 -122.5447 106° East 246 283 4,500 -984 Descending Seattle Center
Wed 10:37:14 PM 45.4175 -122.4853 109° East 216 249 3,800 -1,180 Descending Seattle Center
Wed 10:37:41 PM 45.4139 -122.4458 97° East 221 254 3,300 -787 Descending Seattle Center
Wed 10:38:15 PM 45.4408 -122.4294 23° Northeast 191 220 3,000 -295 Descending Seattle Center
Wed 10:38:42 PM 45.4639 -122.4200 16° North 191 220 3,000 -358 Level Seattle Center
Wed 10:39:22 PM 45.4942 -122.4044 20° North 173 199 2,600 -500 Descending Seattle Center
Wed 10:39:42 PM 45.5097 -122.3997 12° North 176 203 2,500 -367 Descending Seattle Center
Wed 10:40:11 PM 45.5267 -122.4250 314° West 170 196 2,300 -689 Descending Seattle Center
Wed 10:40:43 PM 45.5386 -122.4506 304° West 161 185 1,800 -900 Descending Seattle Center
Wed 10:41:11 PM 45.5486 -122.4806 295° West 161 185 1,400 -689 Descending Seattle Center
Wed 10:41:44 PM 45.5586 -122.5025 303° West 158 182 1,100 -608 Descending Seattle Center
Wed 10:42:30 PM 45.5708 -122.5364 297° West 114 131 600 -689 Descending Seattle Center
Wed 10:42:45 PM 45.5758 -122.5461 306° West 145 167 400 -800 Descending Seattle Center
Wed 10:44:00 PM 45.5833 -122.5833 295° West  Level FlightAware Approximate

Login

Don't have an account? Register now (free) for customized features, flight alerts, and more!